sensor_id;sensor_type;location;lat;lon;timestamp;P1;durP1;ratioP1;P2;durP2;ratioP2
1935;SDS011;969;49.892;10.896;2023-11-21T00:02:04;4.07;;;3.63;;
1935;SDS011;969;49.892;10.896;2023-11-21T00:04:29;4.00;;;3.70;;
1935;SDS011;969;49.892;10.896;2023-11-21T00:06:55;4.30;;;3.90;;
1935;SDS011;969;49.892;10.896;2023-11-21T00:09:21;4.30;;;3.90;;
1935;SDS011;969;49.892;10.896;2023-11-21T00:11:46;4.23;;;3.83;;
1935;SDS011;969;49.892;10.896;2023-11-21T00:14:12;4.23;;;3.93;;
1935;SDS011;969;49.892;10.896;2023-11-21T00:16:40;4.60;;;3.63;;
1935;SDS011;969;49.892;10.896;2023-11-21T00:19:06;5.90;;;5.40;;
1935;SDS011;969;49.892;10.896;2023-11-21T00:21:32;6.13;;;4.00;;
1935;SDS011;969;49.892;10.896;2023-11-21T00:23:57;4.60;;;4.20;;
1935;SDS011;969;49.892;10.896;2023-11-21T00:26:23;4.13;;;3.73;;
1935;SDS011;969;49.892;10.896;2023-11-21T00:28:49;4.23;;;3.83;;
1935;SDS011;969;49.892;10.896;2023-11-21T00:31:15;4.73;;;4.33;;
1935;SDS011;969;49.892;10.896;2023-11-21T00:33:41;4.60;;;4.20;;
1935;SDS011;969;49.892;10.896;2023-11-21T00:36:07;4.10;;;3.70;;
1935;SDS011;969;49.892;10.896;2023-11-21T00:38:35;4.40;;;4.00;;
1935;SDS011;969;49.892;10.896;2023-11-21T00:41:01;4.23;;;3.83;;
1935;SDS011;969;49.892;10.896;2023-11-21T00:43:27;4.73;;;4.33;;
1935;SDS011;969;49.892;10.896;2023-11-21T00:45:53;4.10;;;3.80;;
1935;SDS011;969;49.892;10.896;2023-11-21T00:48:19;4.47;;;4.07;;
1935;SDS011;969;49.892;10.896;2023-11-21T00:50:44;4.10;;;3.77;;
1935;SDS011;969;49.892;10.896;2023-11-21T00:53:10;3.80;;;3.50;;
1935;SDS011;969;49.892;10.896;2023-11-21T00:55:36;4.00;;;3.70;;
1935;SDS011;969;49.892;10.896;2023-11-21T00:58:02;4.10;;;3.70;;
1935;SDS011;969;49.892;10.896;2023-11-21T01:00:29;3.87;;;3.57;;
1935;SDS011;969;49.892;10.896;2023-11-21T01:02:55;4.13;;;3.83;;
1935;SDS011;969;49.892;10.896;2023-11-21T01:05:20;3.47;;;3.17;;
1935;SDS011;969;49.892;10.896;2023-11-21T01:07:46;4.03;;;3.70;;
1935;SDS011;969;49.892;10.896;2023-11-21T01:10:12;4.30;;;3.90;;
1935;SDS011;969;49.892;10.896;2023-11-21T01:12:38;3.87;;;3.57;;
1935;SDS011;969;49.892;10.896;2023-11-21T01:15:07;4.00;;;3.70;;
1935;SDS011;969;49.892;10.896;2023-11-21T01:17:33;3.47;;;3.17;;
1935;SDS011;969;49.892;10.896;2023-11-21T01:20:02;3.63;;;3.33;;
1935;SDS011;969;49.892;10.896;2023-11-21T01:22:31;4.23;;;3.83;;
1935;SDS011;969;49.892;10.896;2023-11-21T01:24:56;3.50;;;3.20;;
1935;SDS011;969;49.892;10.896;2023-11-21T01:27:22;3.67;;;3.37;;
1935;SDS011;969;49.892;10.896;2023-11-21T01:29:48;3.50;;;3.20;;
1935;SDS011;969;49.892;10.896;2023-11-21T01:32:14;4.03;;;3.73;;
1935;SDS011;969;49.892;10.896;2023-11-21T01:34:39;4.57;;;4.27;;
1935;SDS011;969;49.892;10.896;2023-11-21T01:37:05;3.53;;;3.23;;
1935;SDS011;969;49.892;10.896;2023-11-21T01:39:30;3.80;;;3.50;;
1935;SDS011;969;49.892;10.896;2023-11-21T01:41:56;3.80;;;3.50;;
1935;SDS011;969;49.892;10.896;2023-11-21T01:44:26;3.80;;;3.50;;
1935;SDS011;969;49.892;10.896;2023-11-21T01:46:51;3.80;;;3.50;;
1935;SDS011;969;49.892;10.896;2023-11-21T01:49:17;3.70;;;3.40;;
1935;SDS011;969;49.892;10.896;2023-11-21T01:51:47;4.03;;;3.63;;
1935;SDS011;969;49.892;10.896;2023-11-21T01:54:14;3.87;;;3.60;;
1935;SDS011;969;49.892;10.896;2023-11-21T01:56:42;4.07;;;3.77;;
1935;SDS011;969;49.892;10.896;2023-11-21T01:59:10;3.50;;;3.20;;
1935;SDS011;969;49.892;10.896;2023-11-21T02:01:39;4.07;;;3.67;;
1935;SDS011;969;49.892;10.896;2023-11-21T02:04:04;4.90;;;3.43;;
1935;SDS011;969;49.892;10.896;2023-11-21T02:06:30;3.53;;;3.23;;
1935;SDS011;969;49.892;10.896;2023-11-21T02:08:56;3.90;;;3.60;;
1935;SDS011;969;49.892;10.896;2023-11-21T02:11:21;4.60;;;3.47;;
1935;SDS011;969;49.892;10.896;2023-11-21T02:13:47;3.70;;;3.40;;
1935;SDS011;969;49.892;10.896;2023-11-21T02:16:15;3.70;;;3.40;;
1935;SDS011;969;49.892;10.896;2023-11-21T02:18:40;5.10;;;4.10;;
1935;SDS011;969;49.892;10.896;2023-11-21T02:21:06;3.17;;;2.97;;
1935;SDS011;969;49.892;10.896;2023-11-21T02:23:32;3.93;;;3.40;;
1935;SDS011;969;49.892;10.896;2023-11-21T02:25:58;3.87;;;3.50;;
1935;SDS011;969;49.892;10.896;2023-11-21T02:28:29;5.00;;;3.80;;
1935;SDS011;969;49.892;10.896;2023-11-21T02:30:54;3.57;;;3.27;;
1935;SDS011;969;49.892;10.896;2023-11-21T02:33:21;4.07;;;3.67;;
1935;SDS011;969;49.892;10.896;2023-11-21T02:35:47;3.60;;;3.30;;
1935;SDS011;969;49.892;10.896;2023-11-21T02:38:13;3.80;;;3.50;;
1935;SDS011;969;49.892;10.896;2023-11-21T02:40:39;3.93;;;3.63;;
1935;SDS011;969;49.892;10.896;2023-11-21T02:43:04;3.53;;;3.23;;
1935;SDS011;969;49.892;10.896;2023-11-21T02:45:31;2.87;;;2.67;;
1935;SDS011;969;49.892;10.896;2023-11-21T02:47:57;3.27;;;2.97;;
1935;SDS011;969;49.892;10.896;2023-11-21T02:50:23;3.70;;;3.40;;
1935;SDS011;969;49.892;10.896;2023-11-21T02:52:49;3.87;;;3.23;;
1935;SDS011;969;49.892;10.896;2023-11-21T02:55:15;3.47;;;3.00;;
1935;SDS011;969;49.892;10.896;2023-11-21T02:57:40;4.30;;;3.90;;
1935;SDS011;969;49.892;10.896;2023-11-21T03:00:06;3.70;;;3.40;;
1935;SDS011;969;49.892;10.896;2023-11-21T03:02:33;3.80;;;3.50;;
1935;SDS011;969;49.892;10.896;2023-11-21T03:05:01;3.50;;;3.20;;
1935;SDS011;969;49.892;10.896;2023-11-21T03:07:27;3.50;;;3.20;;
1935;SDS011;969;49.892;10.896;2023-11-21T03:09:53;3.53;;;3.10;;
1935;SDS011;969;49.892;10.896;2023-11-21T03:12:18;3.80;;;3.50;;
1935;SDS011;969;49.892;10.896;2023-11-21T03:14:44;3.57;;;3.27;;
1935;SDS011;969;49.892;10.896;2023-11-21T03:17:10;4.83;;;3.03;;
1935;SDS011;969;49.892;10.896;2023-11-21T03:19:36;4.17;;;3.47;;
1935;SDS011;969;49.892;10.896;2023-11-21T03:22:02;4.27;;;3.40;;
1935;SDS011;969;49.892;10.896;2023-11-21T03:24:29;3.60;;;3.30;;
1935;SDS011;969;49.892;10.896;2023-11-21T03:26:54;3.47;;;3.17;;
1935;SDS011;969;49.892;10.896;2023-11-21T03:29:20;3.50;;;3.20;;
1935;SDS011;969;49.892;10.896;2023-11-21T03:31:46;3.10;;;2.80;;
1935;SDS011;969;49.892;10.896;2023-11-21T03:34:15;3.53;;;3.23;;
1935;SDS011;969;49.892;10.896;2023-11-21T03:36:53;3.40;;;3.20;;
1935;SDS011;969;49.892;10.896;2023-11-21T03:39:22;3.30;;;3.00;;
1935;SDS011;969;49.892;10.896;2023-11-21T03:41:47;3.30;;;3.00;;
1935;SDS011;969;49.892;10.896;2023-11-21T03:44:13;3.57;;;3.27;;
1935;SDS011;969;49.892;10.896;2023-11-21T03:46:39;2.53;;;2.33;;
1935;SDS011;969;49.892;10.896;2023-11-21T03:49:05;3.10;;;2.90;;
1935;SDS011;969;49.892;10.896;2023-11-21T03:51:30;3.07;;;2.77;;
1935;SDS011;969;49.892;10.896;2023-11-21T03:53:56;3.00;;;2.80;;
1935;SDS011;969;49.892;10.896;2023-11-21T03:56:22;3.20;;;3.00;;
1935;SDS011;969;49.892;10.896;2023-11-21T03:58:48;3.33;;;3.03;;
1935;SDS011;969;49.892;10.896;2023-11-21T04:01:23;2.90;;;2.70;;
1935;SDS011;969;49.892;10.896;2023-11-21T04:03:49;3.40;;;3.10;;
1935;SDS011;969;49.892;10.896;2023-11-21T04:06:16;2.97;;;2.77;;
1935;SDS011;969;49.892;10.896;2023-11-21T04:08:42;3.17;;;2.67;;
1935;SDS011;969;49.892;10.896;2023-11-21T04:11:09;3.23;;;2.93;;
1935;SDS011;969;49.892;10.896;2023-11-21T04:13:37;3.03;;;2.83;;
1935;SDS011;969;49.892;10.896;2023-11-21T04:16:06;2.77;;;2.57;;
1935;SDS011;969;49.892;10.896;2023-11-21T04:18:33;2.80;;;2.60;;
1935;SDS011;969;49.892;10.896;2023-11-21T04:21:00;3.17;;;2.87;;
1935;SDS011;969;49.892;10.896;2023-11-21T04:23:25;3.57;;;3.27;;
1935;SDS011;969;49.892;10.896;2023-11-21T04:25:51;3.00;;;2.80;;
1935;SDS011;969;49.892;10.896;2023-11-21T04:28:19;3.30;;;3.00;;
1935;SDS011;969;49.892;10.896;2023-11-21T04:30:44;2.80;;;2.60;;
1935;SDS011;969;49.892;10.896;2023-11-21T04:33:10;3.20;;;2.90;;
1935;SDS011;969;49.892;10.896;2023-11-21T04:35:36;2.90;;;2.70;;
1935;SDS011;969;49.892;10.896;2023-11-21T04:38:01;3.03;;;2.80;;
1935;SDS011;969;49.892;10.896;2023-11-21T04:40:27;3.83;;;3.53;;
1935;SDS011;969;49.892;10.896;2023-11-21T04:42:53;3.10;;;2.80;;
1935;SDS011;969;49.892;10.896;2023-11-21T04:45:19;3.00;;;2.80;;
1935;SDS011;969;49.892;10.896;2023-11-21T04:47:44;3.43;;;3.13;;
1935;SDS011;969;49.892;10.896;2023-11-21T04:50:10;2.93;;;2.73;;
1935;SDS011;969;49.892;10.896;2023-11-21T04:52:35;2.80;;;2.60;;
1935;SDS011;969;49.892;10.896;2023-11-21T04:55:01;2.67;;;2.47;;
1935;SDS011;969;49.892;10.896;2023-11-21T04:57:27;3.00;;;2.70;;
1935;SDS011;969;49.892;10.896;2023-11-21T04:59:53;3.90;;;3.13;;
1935;SDS011;969;49.892;10.896;2023-11-21T05:02:19;2.60;;;2.40;;
1935;SDS011;969;49.892;10.896;2023-11-21T05:04:46;3.03;;;2.83;;
1935;SDS011;969;49.892;10.896;2023-11-21T05:07:12;2.97;;;2.67;;
1935;SDS011;969;49.892;10.896;2023-11-21T05:09:41;3.07;;;2.87;;
1935;SDS011;969;49.892;10.896;2023-11-21T05:12:09;2.80;;;2.60;;
1935;SDS011;969;49.892;10.896;2023-11-21T05:14:34;2.73;;;2.53;;
1935;SDS011;969;49.892;10.896;2023-11-21T05:17:00;2.13;;;1.97;;
1935;SDS011;969;49.892;10.896;2023-11-21T05:19:26;3.43;;;3.13;;
1935;SDS011;969;49.892;10.896;2023-11-21T05:21:52;2.97;;;2.70;;
1935;SDS011;969;49.892;10.896;2023-11-21T05:24:17;2.60;;;2.23;;
1935;SDS011;969;49.892;10.896;2023-11-21T05:26:43;2.70;;;2.50;;
1935;SDS011;969;49.892;10.896;2023-11-21T05:29:08;2.40;;;2.20;;
1935;SDS011;969;49.892;10.896;2023-11-21T05:31:35;2.93;;;2.73;;
1935;SDS011;969;49.892;10.896;2023-11-21T05:34:01;3.43;;;3.13;;
1935;SDS011;969;49.892;10.896;2023-11-21T05:36:28;3.07;;;2.87;;
1935;SDS011;969;49.892;10.896;2023-11-21T05:38:54;2.83;;;2.60;;
1935;SDS011;969;49.892;10.896;2023-11-21T05:41:19;2.80;;;2.60;;
1935;SDS011;969;49.892;10.896;2023-11-21T05:43:45;2.63;;;2.43;;
1935;SDS011;969;49.892;10.896;2023-11-21T05:46:10;2.80;;;2.60;;
1935;SDS011;969;49.892;10.896;2023-11-21T05:48:36;3.53;;;3.00;;
1935;SDS011;969;49.892;10.896;2023-11-21T05:51:03;2.50;;;2.30;;
1935;SDS011;969;49.892;10.896;2023-11-21T05:53:30;2.90;;;2.60;;
1935;SDS011;969;49.892;10.896;2023-11-21T05:55:55;2.80;;;2.60;;
1935;SDS011;969;49.892;10.896;2023-11-21T05:58:21;3.40;;;2.70;;
1935;SDS011;969;49.892;10.896;2023-11-21T06:00:47;2.93;;;2.73;;
1935;SDS011;969;49.892;10.896;2023-11-21T06:03:13;3.47;;;2.73;;
1935;SDS011;969;49.892;10.896;2023-11-21T06:05:38;2.67;;;2.47;;
1935;SDS011;969;49.892;10.896;2023-11-21T06:08:04;2.70;;;2.50;;
1935;SDS011;969;49.892;10.896;2023-11-21T06:10:31;2.30;;;2.10;;
1935;SDS011;969;49.892;10.896;2023-11-21T06:12:57;2.63;;;2.27;;
1935;SDS011;969;49.892;10.896;2023-11-21T06:15:23;2.40;;;2.20;;
1935;SDS011;969;49.892;10.896;2023-11-21T06:17:49;2.90;;;2.70;;
1935;SDS011;969;49.892;10.896;2023-11-21T06:20:17;2.77;;;2.57;;
1935;SDS011;969;49.892;10.896;2023-11-21T06:22:44;3.43;;;2.87;;
1935;SDS011;969;49.892;10.896;2023-11-21T06:25:11;2.70;;;2.23;;
1935;SDS011;969;49.892;10.896;2023-11-21T06:27:41;3.10;;;2.50;;
1935;SDS011;969;49.892;10.896;2023-11-21T06:30:09;3.30;;;2.90;;
1935;SDS011;969;49.892;10.896;2023-11-21T06:32:37;2.37;;;2.17;;
1935;SDS011;969;49.892;10.896;2023-11-21T06:35:03;2.23;;;2.03;;
1935;SDS011;969;49.892;10.896;2023-11-21T06:37:30;2.50;;;2.30;;
1935;SDS011;969;49.892;10.896;2023-11-21T06:39:57;2.40;;;2.20;;
1935;SDS011;969;49.892;10.896;2023-11-21T06:42:23;2.50;;;2.30;;
1935;SDS011;969;49.892;10.896;2023-11-21T06:44:49;2.20;;;2.00;;
1935;SDS011;969;49.892;10.896;2023-11-21T06:47:16;3.57;;;2.40;;
1935;SDS011;969;49.892;10.896;2023-11-21T06:49:42;2.90;;;2.40;;
1935;SDS011;969;49.892;10.896;2023-11-21T06:52:08;2.80;;;2.20;;
1935;SDS011;969;49.892;10.896;2023-11-21T06:54:34;2.57;;;2.27;;
1935;SDS011;969;49.892;10.896;2023-11-21T06:57:00;3.10;;;2.33;;
1935;SDS011;969;49.892;10.896;2023-11-21T06:59:28;2.40;;;2.20;;
1935;SDS011;969;49.892;10.896;2023-11-21T07:01:54;2.30;;;2.10;;
1935;SDS011;969;49.892;10.896;2023-11-21T07:04:19;2.73;;;2.00;;
1935;SDS011;969;49.892;10.896;2023-11-21T07:06:45;2.57;;;2.37;;
1935;SDS011;969;49.892;10.896;2023-11-21T07:09:10;3.70;;;2.47;;
1935;SDS011;969;49.892;10.896;2023-11-21T07:11:36;2.23;;;2.03;;
1935;SDS011;969;49.892;10.896;2023-11-21T07:14:05;2.60;;;2.40;;
1935;SDS011;969;49.892;10.896;2023-11-21T07:16:38;2.27;;;2.07;;
1935;SDS011;969;49.892;10.896;2023-11-21T07:19:04;2.63;;;2.43;;
1935;SDS011;969;49.892;10.896;2023-11-21T07:21:33;3.43;;;2.30;;
1935;SDS011;969;49.892;10.896;2023-11-21T07:24:04;2.93;;;2.40;;
1935;SDS011;969;49.892;10.896;2023-11-21T07:26:31;2.87;;;2.67;;
1935;SDS011;969;49.892;10.896;2023-11-21T07:28:58;2.70;;;2.10;;
1935;SDS011;969;49.892;10.896;2023-11-21T07:31:24;2.50;;;2.30;;
1935;SDS011;969;49.892;10.896;2023-11-21T07:33:50;3.00;;;2.20;;
1935;SDS011;969;49.892;10.896;2023-11-21T07:36:17;2.23;;;2.03;;
1935;SDS011;969;49.892;10.896;2023-11-21T07:38:46;2.30;;;2.10;;
1935;SDS011;969;49.892;10.896;2023-11-21T07:41:13;2.60;;;2.40;;
1935;SDS011;969;49.892;10.896;2023-11-21T07:43:42;2.90;;;2.70;;
1935;SDS011;969;49.892;10.896;2023-11-21T07:46:09;2.00;;;1.90;;
1935;SDS011;969;49.892;10.896;2023-11-21T07:48:35;2.47;;;2.10;;
1935;SDS011;969;49.892;10.896;2023-11-21T07:51:01;2.17;;;1.97;;
1935;SDS011;969;49.892;10.896;2023-11-21T07:53:30;2.70;;;2.30;;
1935;SDS011;969;49.892;10.896;2023-11-21T07:55:56;3.00;;;2.10;;
1935;SDS011;969;49.892;10.896;2023-11-21T07:58:22;2.40;;;2.10;;
1935;SDS011;969;49.892;10.896;2023-11-21T08:00:48;2.47;;;2.27;;
1935;SDS011;969;49.892;10.896;2023-11-21T08:03:15;2.70;;;1.80;;
1935;SDS011;969;49.892;10.896;2023-11-21T08:05:41;2.20;;;2.00;;
1935;SDS011;969;49.892;10.896;2023-11-21T08:08:07;3.00;;;2.30;;
1935;SDS011;969;49.892;10.896;2023-11-21T08:10:32;2.87;;;2.03;;
1935;SDS011;969;49.892;10.896;2023-11-21T08:12:58;1.93;;;1.80;;
1935;SDS011;969;49.892;10.896;2023-11-21T08:15:24;2.10;;;1.90;;
1935;SDS011;969;49.892;10.896;2023-11-21T08:17:50;1.93;;;1.83;;
1935;SDS011;969;49.892;10.896;2023-11-21T08:20:15;2.30;;;2.10;;
1935;SDS011;969;49.892;10.896;2023-11-21T08:22:43;1.97;;;1.83;;
1935;SDS011;969;49.892;10.896;2023-11-21T08:25:09;4.43;;;1.97;;
1935;SDS011;969;49.892;10.896;2023-11-21T08:27:34;2.50;;;1.87;;
1935;SDS011;969;49.892;10.896;2023-11-21T08:30:03;2.90;;;2.00;;
1935;SDS011;969;49.892;10.896;2023-11-21T08:32:29;2.20;;;2.00;;
1935;SDS011;969;49.892;10.896;2023-11-21T08:34:58;1.80;;;1.70;;
1935;SDS011;969;49.892;10.896;2023-11-21T08:37:24;2.27;;;2.07;;
1935;SDS011;969;49.892;10.896;2023-11-21T08:39:52;2.30;;;2.10;;
1935;SDS011;969;49.892;10.896;2023-11-21T08:42:18;1.77;;;1.63;;
1935;SDS011;969;49.892;10.896;2023-11-21T08:44:44;4.13;;;2.00;;
1935;SDS011;969;49.892;10.896;2023-11-21T08:47:10;2.10;;;1.80;;
1935;SDS011;969;49.892;10.896;2023-11-21T08:49:36;2.50;;;2.00;;
1935;SDS011;969;49.892;10.896;2023-11-21T08:52:03;2.57;;;1.70;;
1935;SDS011;969;49.892;10.896;2023-11-21T08:54:30;2.07;;;1.97;;
1935;SDS011;969;49.892;10.896;2023-11-21T08:56:56;1.90;;;1.70;;
1935;SDS011;969;49.892;10.896;2023-11-21T08:59:23;2.10;;;1.90;;
1935;SDS011;969;49.892;10.896;2023-11-21T09:01:51;2.30;;;2.10;;
1935;SDS011;969;49.892;10.896;2023-11-21T09:04:17;2.00;;;1.73;;
1935;SDS011;969;49.892;10.896;2023-11-21T09:06:43;2.20;;;1.70;;
1935;SDS011;969;49.892;10.896;2023-11-21T09:09:08;2.67;;;1.80;;
1935;SDS011;969;49.892;10.896;2023-11-21T09:11:35;1.80;;;1.70;;
1935;SDS011;969;49.892;10.896;2023-11-21T09:14:04;1.70;;;1.60;;
1935;SDS011;969;49.892;10.896;2023-11-21T09:16:29;2.13;;;1.93;;
1935;SDS011;969;49.892;10.896;2023-11-21T09:18:56;2.53;;;2.33;;
1935;SDS011;969;49.892;10.896;2023-11-21T09:21:22;1.97;;;1.87;;
1935;SDS011;969;49.892;10.896;2023-11-21T09:23:49;2.03;;;1.83;;
1935;SDS011;969;49.892;10.896;2023-11-21T09:26:14;2.87;;;1.90;;
1935;SDS011;969;49.892;10.896;2023-11-21T09:28:41;3.30;;;2.03;;
1935;SDS011;969;49.892;10.896;2023-11-21T09:31:11;2.23;;;2.03;;
1935;SDS011;969;49.892;10.896;2023-11-21T09:33:37;2.50;;;2.30;;
1935;SDS011;969;49.892;10.896;2023-11-21T09:36:03;1.90;;;1.80;;
1935;SDS011;969;49.892;10.896;2023-11-21T09:38:30;1.87;;;1.70;;
1935;SDS011;969;49.892;10.896;2023-11-21T09:40:56;3.00;;;1.73;;
1935;SDS011;969;49.892;10.896;2023-11-21T09:43:23;1.90;;;1.70;;
1935;SDS011;969;49.892;10.896;2023-11-21T09:45:56;2.00;;;1.73;;
1935;SDS011;969;49.892;10.896;2023-11-21T09:48:26;2.37;;;1.80;;
1935;SDS011;969;49.892;10.896;2023-11-21T09:50:54;1.57;;;1.47;;
1935;SDS011;969;49.892;10.896;2023-11-21T09:53:20;2.30;;;1.63;;
1935;SDS011;969;49.892;10.896;2023-11-21T09:55:47;2.73;;;1.70;;
1935;SDS011;969;49.892;10.896;2023-11-21T09:58:16;3.63;;;2.17;;
1935;SDS011;969;49.892;10.896;2023-11-21T10:00:45;2.00;;;1.80;;
1935;SDS011;969;49.892;10.896;2023-11-21T10:03:12;1.93;;;1.73;;
1935;SDS011;969;49.892;10.896;2023-11-21T10:05:39;2.27;;;2.07;;
1935;SDS011;969;49.892;10.896;2023-11-21T10:08:10;1.90;;;1.70;;
1935;SDS011;969;49.892;10.896;2023-11-21T10:10:37;2.10;;;1.77;;
1935;SDS011;969;49.892;10.896;2023-11-21T10:13:07;2.13;;;1.60;;
1935;SDS011;969;49.892;10.896;2023-11-21T10:15:37;2.20;;;2.00;;
1935;SDS011;969;49.892;10.896;2023-11-21T10:18:04;2.80;;;2.00;;
1935;SDS011;969;49.892;10.896;2023-11-21T10:20:31;2.03;;;1.93;;
1935;SDS011;969;49.892;10.896;2023-11-21T10:23:03;3.00;;;2.13;;
1935;SDS011;969;49.892;10.896;2023-11-21T10:25:29;1.90;;;1.80;;
1935;SDS011;969;49.892;10.896;2023-11-21T10:27:59;2.23;;;2.03;;
1935;SDS011;969;49.892;10.896;2023-11-21T10:30:33;2.20;;;2.00;;
1935;SDS011;969;49.892;10.896;2023-11-21T10:33:05;2.47;;;2.27;;
1935;SDS011;969;49.892;10.896;2023-11-21T10:38:11;2.10;;;1.60;;
1935;SDS011;969;49.892;10.896;2023-11-21T10:40:39;1.63;;;1.50;;
1935;SDS011;969;49.892;10.896;2023-11-21T10:43:10;2.90;;;1.80;;
1935;SDS011;969;49.892;10.896;2023-11-21T10:45:37;2.57;;;1.60;;
1935;SDS011;969;49.892;10.896;2023-11-21T10:48:09;2.63;;;1.87;;
1935;SDS011;969;49.892;10.896;2023-11-21T10:50:36;9.70;;;2.80;;
1935;SDS011;969;49.892;10.896;2023-11-21T10:53:05;2.53;;;1.50;;
1935;SDS011;969;49.892;10.896;2023-11-21T10:55:32;1.90;;;1.80;;
1935;SDS011;969;49.892;10.896;2023-11-21T10:57:59;4.00;;;1.80;;
1935;SDS011;969;49.892;10.896;2023-11-21T11:00:27;2.00;;;1.87;;
1935;SDS011;969;49.892;10.896;2023-11-21T11:02:53;1.73;;;1.63;;
1935;SDS011;969;49.892;10.896;2023-11-21T11:05:20;1.80;;;1.67;;
1935;SDS011;969;49.892;10.896;2023-11-21T11:07:49;1.90;;;1.73;;
1935;SDS011;969;49.892;10.896;2023-11-21T11:10:20;1.73;;;1.63;;
1935;SDS011;969;49.892;10.896;2023-11-21T11:12:51;1.47;;;1.37;;
1935;SDS011;969;49.892;10.896;2023-11-21T11:15:17;2.97;;;1.80;;
1935;SDS011;969;49.892;10.896;2023-11-21T11:17:44;2.17;;;1.77;;
1935;SDS011;969;49.892;10.896;2023-11-21T11:20:11;2.63;;;1.60;;
1935;SDS011;969;49.892;10.896;2023-11-21T11:28:19;3.30;;;1.80;;
1935;SDS011;969;49.892;10.896;2023-11-21T11:38:46;2.07;;;1.87;;
1935;SDS011;969;49.892;10.896;2023-11-21T11:41:15;1.83;;;1.50;;
1935;SDS011;969;49.892;10.896;2023-11-21T11:43:57;1.70;;;1.40;;
1935;SDS011;969;49.892;10.896;2023-11-21T11:46:42;1.90;;;1.70;;
1935;SDS011;969;49.892;10.896;2023-11-21T11:49:11;1.57;;;1.47;;
1935;SDS011;969;49.892;10.896;2023-11-21T11:52:11;2.00;;;1.47;;
1935;SDS011;969;49.892;10.896;2023-11-21T11:54:54;1.60;;;1.43;;
1935;SDS011;969;49.892;10.896;2023-11-21T11:57:23;2.20;;;1.77;;
1935;SDS011;969;49.892;10.896;2023-11-21T12:02:40;3.00;;;2.47;;
1935;SDS011;969;49.892;10.896;2023-11-21T12:05:09;1.87;;;1.77;;
1935;SDS011;969;49.892;10.896;2023-11-21T12:07:56;2.20;;;1.97;;
1935;SDS011;969;49.892;10.896;2023-11-21T12:10:29;3.60;;;1.97;;
1935;SDS011;969;49.892;10.896;2023-11-21T12:12:57;4.13;;;2.00;;
1935;SDS011;969;49.892;10.896;2023-11-21T12:15:24;1.87;;;1.77;;
1935;SDS011;969;49.892;10.896;2023-11-21T12:17:51;3.27;;;1.93;;
1935;SDS011;969;49.892;10.896;2023-11-21T12:20:20;1.60;;;1.40;;
1935;SDS011;969;49.892;10.896;2023-11-21T12:22:48;1.87;;;1.47;;
1935;SDS011;969;49.892;10.896;2023-11-21T12:25:24;3.30;;;2.03;;
1935;SDS011;969;49.892;10.896;2023-11-21T12:27:54;2.20;;;1.60;;
1935;SDS011;969;49.892;10.896;2023-11-21T12:30:21;1.70;;;1.60;;
1935;SDS011;969;49.892;10.896;2023-11-21T12:32:52;1.67;;;1.57;;
1935;SDS011;969;49.892;10.896;2023-11-21T12:35:25;2.90;;;1.77;;
1935;SDS011;969;49.892;10.896;2023-11-21T12:37:55;3.30;;;1.80;;
1935;SDS011;969;49.892;10.896;2023-11-21T12:40:22;1.77;;;1.40;;
1935;SDS011;969;49.892;10.896;2023-11-21T12:42:49;2.70;;;1.67;;
1935;SDS011;969;49.892;10.896;2023-11-21T12:47:48;2.03;;;1.60;;
1935;SDS011;969;49.892;10.896;2023-11-21T12:50:28;4.73;;;1.53;;
1935;SDS011;969;49.892;10.896;2023-11-21T12:53:06;2.10;;;1.37;;
1935;SDS011;969;49.892;10.896;2023-11-21T12:55:41;1.70;;;1.47;;
1935;SDS011;969;49.892;10.896;2023-11-21T12:58:14;2.07;;;1.63;;
1935;SDS011;969;49.892;10.896;2023-11-21T13:00:45;2.60;;;1.40;;
1935;SDS011;969;49.892;10.896;2023-11-21T13:03:12;1.87;;;1.73;;
1935;SDS011;969;49.892;10.896;2023-11-21T13:05:45;2.07;;;1.50;;
1935;SDS011;969;49.892;10.896;2023-11-21T13:08:15;1.90;;;1.57;;
1935;SDS011;969;49.892;10.896;2023-11-21T13:10:44;2.23;;;1.50;;
1935;SDS011;969;49.892;10.896;2023-11-21T13:13:13;1.50;;;1.40;;
1935;SDS011;969;49.892;10.896;2023-11-21T13:15:53;1.97;;;1.80;;
1935;SDS011;969;49.892;10.896;2023-11-21T13:18:31;2.23;;;1.43;;
1935;SDS011;969;49.892;10.896;2023-11-21T13:21:01;1.70;;;1.60;;
1935;SDS011;969;49.892;10.896;2023-11-21T13:23:34;1.60;;;1.40;;
1935;SDS011;969;49.892;10.896;2023-11-21T13:26:01;2.00;;;1.40;;
1935;SDS011;969;49.892;10.896;2023-11-21T13:28:29;1.50;;;1.40;;
1935;SDS011;969;49.892;10.896;2023-11-21T13:30:57;2.20;;;1.40;;
1935;SDS011;969;49.892;10.896;2023-11-21T13:33:33;1.43;;;1.23;;
1935;SDS011;969;49.892;10.896;2023-11-21T13:36:02;3.20;;;1.60;;
1935;SDS011;969;49.892;10.896;2023-11-21T13:38:32;1.97;;;1.40;;
1935;SDS011;969;49.892;10.896;2023-11-21T13:40:59;2.00;;;1.63;;
1935;SDS011;969;49.892;10.896;2023-11-21T13:43:25;1.77;;;1.40;;
1935;SDS011;969;49.892;10.896;2023-11-21T13:45:53;1.33;;;1.20;;
1935;SDS011;969;49.892;10.896;2023-11-21T13:48:26;2.50;;;1.80;;
1935;SDS011;969;49.892;10.896;2023-11-21T13:51:07;1.97;;;1.77;;
1935;SDS011;969;49.892;10.896;2023-11-21T13:53:42;2.30;;;1.33;;
1935;SDS011;969;49.892;10.896;2023-11-21T13:56:10;1.70;;;1.47;;
1935;SDS011;969;49.892;10.896;2023-11-21T13:58:37;2.50;;;1.70;;
1935;SDS011;969;49.892;10.896;2023-11-21T14:01:23;2.20;;;1.30;;
1935;SDS011;969;49.892;10.896;2023-11-21T14:04:00;2.10;;;1.60;;
1935;SDS011;969;49.892;10.896;2023-11-21T14:06:45;2.90;;;1.47;;
1935;SDS011;969;49.892;10.896;2023-11-21T14:09:17;3.20;;;1.70;;
1935;SDS011;969;49.892;10.896;2023-11-21T14:11:58;1.87;;;1.63;;
1935;SDS011;969;49.892;10.896;2023-11-21T14:14:25;1.40;;;1.20;;
1935;SDS011;969;49.892;10.896;2023-11-21T14:16:55;2.03;;;1.50;;
1935;SDS011;969;49.892;10.896;2023-11-21T14:19:22;2.13;;;1.93;;
1935;SDS011;969;49.892;10.896;2023-11-21T14:21:52;1.93;;;1.53;;
1935;SDS011;969;49.892;10.896;2023-11-21T14:24:18;3.50;;;1.67;;
1935;SDS011;969;49.892;10.896;2023-11-21T14:26:44;1.43;;;1.33;;
1935;SDS011;969;49.892;10.896;2023-11-21T14:29:20;1.63;;;1.53;;
1935;SDS011;969;49.892;10.896;2023-11-21T14:31:48;4.30;;;1.60;;
1935;SDS011;969;49.892;10.896;2023-11-21T14:34:16;1.53;;;1.30;;
1935;SDS011;969;49.892;10.896;2023-11-21T14:36:42;1.40;;;1.20;;
1935;SDS011;969;49.892;10.896;2023-11-21T14:39:09;1.90;;;1.70;;
1935;SDS011;969;49.892;10.896;2023-11-21T14:41:46;1.87;;;1.47;;
1935;SDS011;969;49.892;10.896;2023-11-21T14:44:12;2.30;;;1.37;;
1935;SDS011;969;49.892;10.896;2023-11-21T14:46:39;1.60;;;1.30;;
1935;SDS011;969;49.892;10.896;2023-11-21T14:49:06;2.70;;;1.80;;
1935;SDS011;969;49.892;10.896;2023-11-21T14:51:47;2.80;;;1.60;;
1935;SDS011;969;49.892;10.896;2023-11-21T14:54:33;1.77;;;1.40;;
1935;SDS011;969;49.892;10.896;2023-11-21T14:57:14;3.57;;;1.80;;
1935;SDS011;969;49.892;10.896;2023-11-21T14:59:44;2.67;;;2.20;;
1935;SDS011;969;49.892;10.896;2023-11-21T15:02:17;3.37;;;1.80;;
1935;SDS011;969;49.892;10.896;2023-11-21T15:04:47;1.40;;;1.20;;
1935;SDS011;969;49.892;10.896;2023-11-21T15:07:17;1.93;;;1.53;;
1935;SDS011;969;49.892;10.896;2023-11-21T15:09:43;3.70;;;1.50;;
1935;SDS011;969;49.892;10.896;2023-11-21T15:12:10;2.33;;;1.47;;
1935;SDS011;969;49.892;10.896;2023-11-21T15:17:14;2.80;;;1.47;;
1935;SDS011;969;49.892;10.896;2023-11-21T15:19:47;4.63;;;1.70;;
1935;SDS011;969;49.892;10.896;2023-11-21T15:22:12;1.50;;;1.10;;
1935;SDS011;969;49.892;10.896;2023-11-21T15:24:40;1.93;;;1.60;;
1935;SDS011;969;49.892;10.896;2023-11-21T15:27:08;2.60;;;1.30;;
1935;SDS011;969;49.892;10.896;2023-11-21T15:29:34;1.60;;;1.33;;
1935;SDS011;969;49.892;10.896;2023-11-21T15:31:59;1.87;;;1.50;;
1935;SDS011;969;49.892;10.896;2023-11-21T15:34:25;2.10;;;1.37;;
1935;SDS011;969;49.892;10.896;2023-11-21T15:36:53;1.50;;;1.40;;
1935;SDS011;969;49.892;10.896;2023-11-21T15:39:19;1.57;;;1.30;;
1935;SDS011;969;49.892;10.896;2023-11-21T15:41:47;1.50;;;1.13;;
1935;SDS011;969;49.892;10.896;2023-11-21T15:44:12;1.90;;;1.50;;